Abbey Dell, Indiana
Current Conditions -  °F | °C
As of 6:55 PM on Saturday 25 Oct 2014 (Local Time) from KDCY Reporting Station
Clear Clear  
Wind Chill: 66°   Ceiling: Unl
Heat Index: 66°   Visibility: 10mi
Dew Point: 56°   Wind: 5mph
Humidity: 71%   Direction: 240°WSW
Pressure: 29.96"   Gusts: NA
Location:  38.6165°N, 86.6265°W
Report Text: KDCY 252255Z AUTO 24004KT 10SM CLR 19/13 A2996 RMK AO2 T01870133
Loading
Personal Weather Stations






























Interactive Weather Map
Tropical Storm Tracking
New forecast layout! Learn more

10-Day Weather Forecast

Advertisements
Track Severe Weather on mobile